sensor_id;sensor_type;location;lat;lon;timestamp;pressure;altitude;pressure_sealevel;temperature
16956;BMP180;8594;52.052;8.354;2023-02-26T00:00:25;100600.00;;;3.00
16956;BMP180;8594;52.052;8.354;2023-02-26T00:02:52;100602.00;;;3.50
16956;BMP180;8594;52.052;8.354;2023-02-26T00:05:19;100604.00;;;3.20
16956;BMP180;8594;52.052;8.354;2023-02-26T00:07:45;100602.00;;;3.40
16956;BMP180;8594;52.052;8.354;2023-02-26T00:10:13;100608.00;;;3.50
16956;BMP180;8594;52.052;8.354;2023-02-26T00:12:42;100604.00;;;3.30
16956;BMP180;8594;52.052;8.354;2023-02-26T00:15:11;100607.00;;;3.50
16956;BMP180;8594;52.052;8.354;2023-02-26T00:17:51;100611.00;;;3.90
16956;BMP180;8594;52.052;8.354;2023-02-26T00:20:20;100613.00;;;2.90
16956;BMP180;8594;52.052;8.354;2023-02-26T00:22:47;100610.00;;;3.20
16956;BMP180;8594;52.052;8.354;2023-02-26T00:25:14;100623.00;;;2.60
16956;BMP180;8594;52.052;8.354;2023-02-26T00:27:42;100621.00;;;2.70
16956;BMP180;8594;52.052;8.354;2023-02-26T00:30:11;100624.00;;;3.00
16956;BMP180;8594;52.052;8.354;2023-02-26T00:32:39;100622.00;;;3.50
16956;BMP180;8594;52.052;8.354;2023-02-26T00:35:13;100622.00;;;3.20
16956;BMP180;8594;52.052;8.354;2023-02-26T00:38:00;100626.00;;;3.30
16956;BMP180;8594;52.052;8.354;2023-02-26T00:40:44;100638.00;;;3.40
16956;BMP180;8594;52.052;8.354;2023-02-26T00:43:16;100639.00;;;3.20
16956;BMP180;8594;52.052;8.354;2023-02-26T00:45:50;100645.00;;;3.10
16956;BMP180;8594;52.052;8.354;2023-02-26T00:48:39;100646.00;;;2.90
16956;BMP180;8594;52.052;8.354;2023-02-26T00:51:20;100647.00;;;3.40
16956;BMP180;8594;52.052;8.354;2023-02-26T00:53:58;100651.00;;;3.30
16956;BMP180;8594;52.052;8.354;2023-02-26T00:56:29;100656.00;;;3.00
16956;BMP180;8594;52.052;8.354;2023-02-26T00:58:56;100668.00;;;3.20
16956;BMP180;8594;52.052;8.354;2023-02-26T01:01:23;100655.00;;;3.20
16956;BMP180;8594;52.052;8.354;2023-02-26T01:03:50;100659.00;;;2.80
16956;BMP180;8594;52.052;8.354;2023-02-26T01:06:20;100659.00;;;3.00
16956;BMP180;8594;52.052;8.354;2023-02-26T01:08:58;100667.00;;;2.80
16956;BMP180;8594;52.052;8.354;2023-02-26T01:11:29;100668.00;;;3.00
16956;BMP180;8594;52.052;8.354;2023-02-26T01:13:56;100657.00;;;3.10
16956;BMP180;8594;52.052;8.354;2023-02-26T01:16:27;100662.00;;;3.30
16956;BMP180;8594;52.052;8.354;2023-02-26T01:19:02;100675.00;;;3.20
16956;BMP180;8594;52.052;8.354;2023-02-26T01:21:41;100669.00;;;3.20
16956;BMP180;8594;52.052;8.354;2023-02-26T01:24:16;100680.00;;;3.30
16956;BMP180;8594;52.052;8.354;2023-02-26T01:26:44;100676.00;;;3.00
16956;BMP180;8594;52.052;8.354;2023-02-26T01:29:15;100686.00;;;3.00
16956;BMP180;8594;52.052;8.354;2023-02-26T01:31:49;100680.00;;;3.00
16956;BMP180;8594;52.052;8.354;2023-02-26T01:34:22;100679.00;;;3.00
16956;BMP180;8594;52.052;8.354;2023-02-26T01:37:01;100681.00;;;3.10
16956;BMP180;8594;52.052;8.354;2023-02-26T01:39:35;100679.00;;;2.80
16956;BMP180;8594;52.052;8.354;2023-02-26T01:42:14;100681.00;;;3.00
16956;BMP180;8594;52.052;8.354;2023-02-26T01:44:55;100676.00;;;3.10
16956;BMP180;8594;52.052;8.354;2023-02-26T01:47:32;100689.00;;;3.20
16956;BMP180;8594;52.052;8.354;2023-02-26T01:50:13;100691.00;;;3.40
16956;BMP180;8594;52.052;8.354;2023-02-26T01:53:23;100695.00;;;3.20
16956;BMP180;8594;52.052;8.354;2023-02-26T01:55:55;100690.00;;;3.20
16956;BMP180;8594;52.052;8.354;2023-02-26T01:58:25;100692.00;;;2.90
16956;BMP180;8594;52.052;8.354;2023-02-26T02:00:53;100697.00;;;3.20
16956;BMP180;8594;52.052;8.354;2023-02-26T02:03:21;100698.00;;;3.10
16956;BMP180;8594;52.052;8.354;2023-02-26T02:05:54;100702.00;;;3.20
16956;BMP180;8594;52.052;8.354;2023-02-26T02:08:23;100705.00;;;3.10
16956;BMP180;8594;52.052;8.354;2023-02-26T02:10:52;100705.00;;;3.30
16956;BMP180;8594;52.052;8.354;2023-02-26T02:13:34;100711.00;;;3.00
16956;BMP180;8594;52.052;8.354;2023-02-26T02:16:16;100704.00;;;3.10
16956;BMP180;8594;52.052;8.354;2023-02-26T02:18:53;100704.00;;;2.50
16956;BMP180;8594;52.052;8.354;2023-02-26T02:21:49;100710.00;;;2.70
16956;BMP180;8594;52.052;8.354;2023-02-26T02:24:33;100713.00;;;3.20
16956;BMP180;8594;52.052;8.354;2023-02-26T02:27:12;100722.00;;;2.90
16956;BMP180;8594;52.052;8.354;2023-02-26T02:30:08;100716.00;;;3.00
16956;BMP180;8594;52.052;8.354;2023-02-26T02:32:48;100718.00;;;2.60
16956;BMP180;8594;52.052;8.354;2023-02-26T02:35:21;100719.00;;;2.70
16956;BMP180;8594;52.052;8.354;2023-02-26T02:37:56;100717.00;;;2.70
16956;BMP180;8594;52.052;8.354;2023-02-26T02:40:28;100722.00;;;2.80
16956;BMP180;8594;52.052;8.354;2023-02-26T02:43:01;100730.00;;;2.60
16956;BMP180;8594;52.052;8.354;2023-02-26T02:45:37;100733.00;;;2.80
16956;BMP180;8594;52.052;8.354;2023-02-26T02:48:16;100742.00;;;2.70
16956;BMP180;8594;52.052;8.354;2023-02-26T02:50:50;100754.00;;;2.50
16956;BMP180;8594;52.052;8.354;2023-02-26T02:53:23;100753.00;;;2.60
16956;BMP180;8594;52.052;8.354;2023-02-26T02:55:57;100756.00;;;2.20
16956;BMP180;8594;52.052;8.354;2023-02-26T02:58:30;100754.00;;;2.30
16956;BMP180;8594;52.052;8.354;2023-02-26T03:01:03;100755.00;;;2.40
16956;BMP180;8594;52.052;8.354;2023-02-26T03:03:38;100752.00;;;1.90
16956;BMP180;8594;52.052;8.354;2023-02-26T03:06:08;100760.00;;;2.00
16956;BMP180;8594;52.052;8.354;2023-02-26T03:08:39;100765.00;;;2.50
16956;BMP180;8594;52.052;8.354;2023-02-26T03:11:07;100766.00;;;2.50
16956;BMP180;8594;52.052;8.354;2023-02-26T03:13:34;100771.00;;;2.50
16956;BMP180;8594;52.052;8.354;2023-02-26T03:16:28;100774.00;;;2.40
16956;BMP180;8594;52.052;8.354;2023-02-26T03:19:12;100777.00;;;2.70
16956;BMP180;8594;52.052;8.354;2023-02-26T03:21:48;100782.00;;;2.50
16956;BMP180;8594;52.052;8.354;2023-02-26T03:24:24;100784.00;;;2.50
16956;BMP180;8594;52.052;8.354;2023-02-26T03:26:58;100793.00;;;2.10
16956;BMP180;8594;52.052;8.354;2023-02-26T03:29:37;100798.00;;;2.30
16956;BMP180;8594;52.052;8.354;2023-02-26T03:32:10;100802.00;;;2.20
16956;BMP180;8594;52.052;8.354;2023-02-26T03:34:48;100807.00;;;2.30
16956;BMP180;8594;52.052;8.354;2023-02-26T03:37:22;100812.00;;;2.10
16956;BMP180;8594;52.052;8.354;2023-02-26T03:39:55;100800.00;;;2.10
16956;BMP180;8594;52.052;8.354;2023-02-26T03:42:28;100806.00;;;2.10
16956;BMP180;8594;52.052;8.354;2023-02-26T03:44:58;100809.00;;;1.90
16956;BMP180;8594;52.052;8.354;2023-02-26T03:47:28;100815.00;;;1.90
16956;BMP180;8594;52.052;8.354;2023-02-26T03:50:04;100805.00;;;1.90
16956;BMP180;8594;52.052;8.354;2023-02-26T03:52:37;100817.00;;;1.80
16956;BMP180;8594;52.052;8.354;2023-02-26T03:55:11;100816.00;;;1.50
16956;BMP180;8594;52.052;8.354;2023-02-26T03:57:40;100826.00;;;1.90
16956;BMP180;8594;52.052;8.354;2023-02-26T04:00:10;100829.00;;;2.00
16956;BMP180;8594;52.052;8.354;2023-02-26T04:02:54;100832.00;;;1.30
16956;BMP180;8594;52.052;8.354;2023-02-26T04:05:27;100835.00;;;1.80
16956;BMP180;8594;52.052;8.354;2023-02-26T04:07:56;100830.00;;;1.90
16956;BMP180;8594;52.052;8.354;2023-02-26T04:10:29;100843.00;;;1.90
16956;BMP180;8594;52.052;8.354;2023-02-26T04:12:59;100847.00;;;2.00
16956;BMP180;8594;52.052;8.354;2023-02-26T04:15:26;100856.00;;;2.10
16956;BMP180;8594;52.052;8.354;2023-02-26T04:17:53;100858.00;;;1.80
16956;BMP180;8594;52.052;8.354;2023-02-26T04:20:20;100859.00;;;2.00
16956;BMP180;8594;52.052;8.354;2023-02-26T04:22:48;100862.00;;;2.10
16956;BMP180;8594;52.052;8.354;2023-02-26T04:25:15;100866.00;;;1.90
16956;BMP180;8594;52.052;8.354;2023-02-26T04:27:41;100871.00;;;1.40
16956;BMP180;8594;52.052;8.354;2023-02-26T04:30:10;100873.00;;;1.70
16956;BMP180;8594;52.052;8.354;2023-02-26T04:32:37;100873.00;;;1.50
16956;BMP180;8594;52.052;8.354;2023-02-26T04:35:04;100877.00;;;1.80
16956;BMP180;8594;52.052;8.354;2023-02-26T04:37:31;100885.00;;;1.60
16956;BMP180;8594;52.052;8.354;2023-02-26T04:39:59;100881.00;;;1.70
16956;BMP180;8594;52.052;8.354;2023-02-26T04:42:26;100886.00;;;1.50
16956;BMP180;8594;52.052;8.354;2023-02-26T04:44:53;100888.00;;;1.70
16956;BMP180;8594;52.052;8.354;2023-02-26T04:47:20;100894.00;;;2.00
16956;BMP180;8594;52.052;8.354;2023-02-26T04:49:46;100903.00;;;1.80
16956;BMP180;8594;52.052;8.354;2023-02-26T04:52:13;100908.00;;;1.40
16956;BMP180;8594;52.052;8.354;2023-02-26T04:54:40;100908.00;;;1.90
16956;BMP180;8594;52.052;8.354;2023-02-26T04:57:09;100909.00;;;1.90
16956;BMP180;8594;52.052;8.354;2023-02-26T04:59:36;100912.00;;;1.90
16956;BMP180;8594;52.052;8.354;2023-02-26T05:02:03;100909.00;;;1.80
16956;BMP180;8594;52.052;8.354;2023-02-26T05:04:30;100921.00;;;2.00
16956;BMP180;8594;52.052;8.354;2023-02-26T05:06:57;100921.00;;;1.90
16956;BMP180;8594;52.052;8.354;2023-02-26T05:09:24;100928.00;;;1.80
16956;BMP180;8594;52.052;8.354;2023-02-26T05:11:51;100940.00;;;2.20
16956;BMP180;8594;52.052;8.354;2023-02-26T05:14:19;100932.00;;;1.80
16956;BMP180;8594;52.052;8.354;2023-02-26T05:16:46;100929.00;;;1.80
16956;BMP180;8594;52.052;8.354;2023-02-26T05:19:12;100931.00;;;2.00
16956;BMP180;8594;52.052;8.354;2023-02-26T05:21:39;100923.00;;;2.00
16956;BMP180;8594;52.052;8.354;2023-02-26T05:24:07;100941.00;;;1.90
16956;BMP180;8594;52.052;8.354;2023-02-26T05:26:34;100934.00;;;2.00
16956;BMP180;8594;52.052;8.354;2023-02-26T05:29:00;100939.00;;;1.90
16956;BMP180;8594;52.052;8.354;2023-02-26T05:31:29;100940.00;;;2.10
16956;BMP180;8594;52.052;8.354;2023-02-26T05:33:55;100952.00;;;2.10
16956;BMP180;8594;52.052;8.354;2023-02-26T05:36:23;100948.00;;;1.90
16956;BMP180;8594;52.052;8.354;2023-02-26T05:38:49;100960.00;;;2.10
16956;BMP180;8594;52.052;8.354;2023-02-26T05:41:16;100960.00;;;1.90
16956;BMP180;8594;52.052;8.354;2023-02-26T05:43:43;100966.00;;;2.10
16956;BMP180;8594;52.052;8.354;2023-02-26T05:46:10;100966.00;;;2.00
16956;BMP180;8594;52.052;8.354;2023-02-26T05:48:38;100969.00;;;1.80
16956;BMP180;8594;52.052;8.354;2023-02-26T05:51:05;100974.00;;;1.50
16956;BMP180;8594;52.052;8.354;2023-02-26T05:53:31;100980.00;;;1.40
16956;BMP180;8594;52.052;8.354;2023-02-26T05:55:58;100983.00;;;1.50
16956;BMP180;8594;52.052;8.354;2023-02-26T05:58:25;100985.00;;;1.70
16956;BMP180;8594;52.052;8.354;2023-02-26T06:00:52;100992.00;;;1.90
16956;BMP180;8594;52.052;8.354;2023-02-26T06:03:19;100988.00;;;2.00
16956;BMP180;8594;52.052;8.354;2023-02-26T06:05:47;101007.00;;;2.00
16956;BMP180;8594;52.052;8.354;2023-02-26T06:08:14;101008.00;;;1.90
16956;BMP180;8594;52.052;8.354;2023-02-26T06:10:41;101004.00;;;1.60
16956;BMP180;8594;52.052;8.354;2023-02-26T06:13:08;101017.00;;;1.70
16956;BMP180;8594;52.052;8.354;2023-02-26T06:15:35;101020.00;;;1.50
16956;BMP180;8594;52.052;8.354;2023-02-26T06:18:02;101033.00;;;1.80
16956;BMP180;8594;52.052;8.354;2023-02-26T06:20:29;101032.00;;;1.80
16956;BMP180;8594;52.052;8.354;2023-02-26T06:22:57;101031.00;;;1.90
16956;BMP180;8594;52.052;8.354;2023-02-26T06:25:24;101039.00;;;1.90
16956;BMP180;8594;52.052;8.354;2023-02-26T06:27:50;101041.00;;;1.70
16956;BMP180;8594;52.052;8.354;2023-02-26T06:30:18;101046.00;;;1.80
16956;BMP180;8594;52.052;8.354;2023-02-26T06:32:44;101054.00;;;1.90
16956;BMP180;8594;52.052;8.354;2023-02-26T06:35:11;101067.00;;;1.70
16956;BMP180;8594;52.052;8.354;2023-02-26T06:37:38;101059.00;;;2.00
16956;BMP180;8594;52.052;8.354;2023-02-26T06:40:08;101066.00;;;1.70
16956;BMP180;8594;52.052;8.354;2023-02-26T06:42:36;101078.00;;;1.80
16956;BMP180;8594;52.052;8.354;2023-02-26T06:45:04;101077.00;;;2.00
16956;BMP180;8594;52.052;8.354;2023-02-26T06:47:31;101084.00;;;2.10
16956;BMP180;8594;52.052;8.354;2023-02-26T06:49:58;101081.00;;;1.90
16956;BMP180;8594;52.052;8.354;2023-02-26T06:52:24;101089.00;;;2.10
16956;BMP180;8594;52.052;8.354;2023-02-26T06:54:51;101091.00;;;2.30
16956;BMP180;8594;52.052;8.354;2023-02-26T06:57:19;101094.00;;;1.90
16956;BMP180;8594;52.052;8.354;2023-02-26T06:59:46;101088.00;;;2.00
16956;BMP180;8594;52.052;8.354;2023-02-26T07:02:17;101104.00;;;2.10
16956;BMP180;8594;52.052;8.354;2023-02-26T07:04:47;101085.00;;;1.80
16956;BMP180;8594;52.052;8.354;2023-02-26T07:07:14;101087.00;;;1.90
16956;BMP180;8594;52.052;8.354;2023-02-26T07:09:41;101104.00;;;1.80
16956;BMP180;8594;52.052;8.354;2023-02-26T07:12:08;101111.00;;;1.90
16956;BMP180;8594;52.052;8.354;2023-02-26T07:14:37;101114.00;;;2.00
16956;BMP180;8594;52.052;8.354;2023-02-26T07:17:05;101110.00;;;2.10
16956;BMP180;8594;52.052;8.354;2023-02-26T07:19:31;101127.00;;;2.20
16956;BMP180;8594;52.052;8.354;2023-02-26T07:21:59;101123.00;;;2.20
16956;BMP180;8594;52.052;8.354;2023-02-26T07:24:26;101120.00;;;2.50
16956;BMP180;8594;52.052;8.354;2023-02-26T07:26:53;101122.00;;;2.30
16956;BMP180;8594;52.052;8.354;2023-02-26T07:29:19;101127.00;;;2.50
16956;BMP180;8594;52.052;8.354;2023-02-26T07:31:48;101116.00;;;2.80
16956;BMP180;8594;52.052;8.354;2023-02-26T07:34:14;101115.00;;;3.90
16956;BMP180;8594;52.052;8.354;2023-02-26T07:36:41;101119.00;;;3.80
16956;BMP180;8594;52.052;8.354;2023-02-26T07:39:09;101122.00;;;4.20
16956;BMP180;8594;52.052;8.354;2023-02-26T07:41:36;101130.00;;;4.70
16956;BMP180;8594;52.052;8.354;2023-02-26T07:44:03;101138.00;;;5.00
16956;BMP180;8594;52.052;8.354;2023-02-26T07:46:29;101139.00;;;6.00
16956;BMP180;8594;52.052;8.354;2023-02-26T07:48:57;101152.00;;;5.90
16956;BMP180;8594;52.052;8.354;2023-02-26T07:51:24;101145.00;;;5.80
16956;BMP180;8594;52.052;8.354;2023-02-26T07:53:51;101152.00;;;6.20
16956;BMP180;8594;52.052;8.354;2023-02-26T07:56:18;101152.00;;;6.60
16956;BMP180;8594;52.052;8.354;2023-02-26T07:58:45;101162.00;;;6.70
16956;BMP180;8594;52.052;8.354;2023-02-26T08:01:23;101164.00;;;7.20
16956;BMP180;8594;52.052;8.354;2023-02-26T08:03:50;101169.00;;;7.90
16956;BMP180;8594;52.052;8.354;2023-02-26T08:06:18;101168.00;;;7.90
16956;BMP180;8594;52.052;8.354;2023-02-26T08:08:45;101171.00;;;7.00
16956;BMP180;8594;52.052;8.354;2023-02-26T08:11:12;101173.00;;;8.00
16956;BMP180;8594;52.052;8.354;2023-02-26T08:13:39;101184.00;;;8.60
16956;BMP180;8594;52.052;8.354;2023-02-26T08:16:06;101190.00;;;9.00
16956;BMP180;8594;52.052;8.354;2023-02-26T08:18:32;101188.00;;;8.40
16956;BMP180;8594;52.052;8.354;2023-02-26T08:21:00;101186.00;;;9.20
16956;BMP180;8594;52.052;8.354;2023-02-26T08:23:28;101198.00;;;9.20
16956;BMP180;8594;52.052;8.354;2023-02-26T08:26:00;101200.00;;;9.20
16956;BMP180;8594;52.052;8.354;2023-02-26T08:28:27;101201.00;;;10.10
16956;BMP180;8594;52.052;8.354;2023-02-26T08:30:54;101211.00;;;9.50
16956;BMP180;8594;52.052;8.354;2023-02-26T08:33:21;101219.00;;;9.70
16956;BMP180;8594;52.052;8.354;2023-02-26T08:35:48;101226.00;;;9.70
16956;BMP180;8594;52.052;8.354;2023-02-26T08:38:15;101222.00;;;10.70
16956;BMP180;8594;52.052;8.354;2023-02-26T08:40:43;101228.00;;;8.90
16956;BMP180;8594;52.052;8.354;2023-02-26T08:43:10;101225.00;;;9.30
16956;BMP180;8594;52.052;8.354;2023-02-26T08:45:37;101238.00;;;10.10
16956;BMP180;8594;52.052;8.354;2023-02-26T08:48:04;101235.00;;;9.70
16956;BMP180;8594;52.052;8.354;2023-02-26T08:50:32;101236.00;;;9.50
16956;BMP180;8594;52.052;8.354;2023-02-26T08:52:59;101245.00;;;10.40
16956;BMP180;8594;52.052;8.354;2023-02-26T08:55:25;101245.00;;;10.60
16956;BMP180;8594;52.052;8.354;2023-02-26T08:57:54;101255.00;;;10.70
16956;BMP180;8594;52.052;8.354;2023-02-26T09:00:21;101253.00;;;9.00
16956;BMP180;8594;52.052;8.354;2023-02-26T09:02:48;101260.00;;;9.80
16956;BMP180;8594;52.052;8.354;2023-02-26T09:05:16;101260.00;;;10.90
16956;BMP180;8594;52.052;8.354;2023-02-26T09:07:43;101268.00;;;9.90
16956;BMP180;8594;52.052;8.354;2023-02-26T09:10:14;101269.00;;;9.90
16956;BMP180;8594;52.052;8.354;2023-02-26T09:12:42;101277.00;;;9.90
16956;BMP180;8594;52.052;8.354;2023-02-26T09:15:11;101280.00;;;10.20
16956;BMP180;8594;52.052;8.354;2023-02-26T09:17:39;101283.00;;;9.90
16956;BMP180;8594;52.052;8.354;2023-02-26T09:20:07;101284.00;;;9.70
16956;BMP180;8594;52.052;8.354;2023-02-26T09:22:35;101296.00;;;8.70
16956;BMP180;8594;52.052;8.354;2023-02-26T09:25:03;101300.00;;;8.60
16956;BMP180;8594;52.052;8.354;2023-02-26T09:27:30;101301.00;;;9.40
16956;BMP180;8594;52.052;8.354;2023-02-26T09:29:57;101305.00;;;9.30
16956;BMP180;8594;52.052;8.354;2023-02-26T09:32:25;101321.00;;;9.50
16956;BMP180;8594;52.052;8.354;2023-02-26T09:34:52;101319.00;;;8.30
16956;BMP180;8594;52.052;8.354;2023-02-26T09:37:19;101306.00;;;7.30
16956;BMP180;8594;52.052;8.354;2023-02-26T09:39:46;101320.00;;;7.50
16956;BMP180;8594;52.052;8.354;2023-02-26T09:42:29;101325.00;;;8.00
16956;BMP180;8594;52.052;8.354;2023-02-26T09:45:01;101325.00;;;7.80
16956;BMP180;8594;52.052;8.354;2023-02-26T09:47:36;101324.00;;;7.60
16956;BMP180;8594;52.052;8.354;2023-02-26T09:50:15;101315.00;;;7.70
16956;BMP180;8594;52.052;8.354;2023-02-26T09:52:49;101329.00;;;8.40
16956;BMP180;8594;52.052;8.354;2023-02-26T09:55:27;101338.00;;;7.90
16956;BMP180;8594;52.052;8.354;2023-02-26T09:57:59;101342.00;;;8.20
16956;BMP180;8594;52.052;8.354;2023-02-26T10:00:35;101344.00;;;9.70
16956;BMP180;8594;52.052;8.354;2023-02-26T10:03:19;101342.00;;;8.10
16956;BMP180;8594;52.052;8.354;2023-02-26T10:06:14;101367.00;;;8.20
16956;BMP180;8594;52.052;8.354;2023-02-26T10:08:54;101355.00;;;8.40
16956;BMP180;8594;52.052;8.354;2023-02-26T10:11:30;101360.00;;;7.80
16956;BMP180;8594;52.052;8.354;2023-02-26T10:14:04;101347.00;;;7.50
16956;BMP180;8594;52.052;8.354;2023-02-26T10:16:37;101361.00;;;8.10
16956;BMP180;8594;52.052;8.354;2023-02-26T10:19:12;101364.00;;;8.00
16956;BMP180;8594;52.052;8.354;2023-02-26T10:21:47;101356.00;;;7.80
16956;BMP180;8594;52.052;8.354;2023-02-26T10:24:21;101349.00;;;7.50
16956;BMP180;8594;52.052;8.354;2023-02-26T10:26:54;101352.00;;;7.50
16956;BMP180;8594;52.052;8.354;2023-02-26T10:29:33;101364.00;;;7.60
16956;BMP180;8594;52.052;8.354;2023-02-26T10:32:17;101352.00;;;7.60
16956;BMP180;8594;52.052;8.354;2023-02-26T10:34:50;101372.00;;;7.40
16956;BMP180;8594;52.052;8.354;2023-02-26T10:37:22;101376.00;;;7.50
16956;BMP180;8594;52.052;8.354;2023-02-26T10:39:55;101381.00;;;8.20
16956;BMP180;8594;52.052;8.354;2023-02-26T10:42:31;101388.00;;;8.80
16956;BMP180;8594;52.052;8.354;2023-02-26T10:45:22;101374.00;;;7.70
16956;BMP180;8594;52.052;8.354;2023-02-26T10:48:03;101382.00;;;8.40
16956;BMP180;8594;52.052;8.354;2023-02-26T10:50:35;101395.00;;;8.70
16956;BMP180;8594;52.052;8.354;2023-02-26T10:53:03;101398.00;;;8.50
16956;BMP180;8594;52.052;8.354;2023-02-26T10:55:39;101393.00;;;8.70
16956;BMP180;8594;52.052;8.354;2023-02-26T10:58:12;101395.00;;;8.60
16956;BMP180;8594;52.052;8.354;2023-02-26T11:00:44;101410.00;;;8.00
16956;BMP180;8594;52.052;8.354;2023-02-26T11:03:19;101396.00;;;7.40
16956;BMP180;8594;52.052;8.354;2023-02-26T11:05:47;101394.00;;;8.10
16956;BMP180;8594;52.052;8.354;2023-02-26T11:08:19;101390.00;;;7.50
16956;BMP180;8594;52.052;8.354;2023-02-26T11:10:52;101385.00;;;7.60
16956;BMP180;8594;52.052;8.354;2023-02-26T11:13:21;101389.00;;;7.10
16956;BMP180;8594;52.052;8.354;2023-02-26T11:15:51;101389.00;;;7.40
16956;BMP180;8594;52.052;8.354;2023-02-26T11:18:25;101401.00;;;7.50
16956;BMP180;8594;52.052;8.354;2023-02-26T11:20:57;101393.00;;;7.30
16956;BMP180;8594;52.052;8.354;2023-02-26T11:23:29;101391.00;;;7.10
16956;BMP180;8594;52.052;8.354;2023-02-26T11:26:01;101401.00;;;7.10
16956;BMP180;8594;52.052;8.354;2023-02-26T11:28:35;101385.00;;;7.20
16956;BMP180;8594;52.052;8.354;2023-02-26T11:31:08;101394.00;;;7.30
16956;BMP180;8594;52.052;8.354;2023-02-26T11:33:39;101398.00;;;6.70
16956;BMP180;8594;52.052;8.354;2023-02-26T11:36:13;101387.00;;;6.90
16956;BMP180;8594;52.052;8.354;2023-02-26T11:38:44;101394.00;;;6.90
16956;BMP180;8594;52.052;8.354;2023-02-26T11:41:12;101400.00;;;7.30
16956;BMP180;8594;52.052;8.354;2023-02-26T11:43:43;101393.00;;;7.40
16956;BMP180;8594;52.052;8.354;2023-02-26T11:46:12;101407.00;;;7.50
16956;BMP180;8594;52.052;8.354;2023-02-26T11:48:43;101394.00;;;7.60
16956;BMP180;8594;52.052;8.354;2023-02-26T11:51:18;101407.00;;;8.40
16956;BMP180;8594;52.052;8.354;2023-02-26T11:53:50;101404.00;;;9.20
16956;BMP180;8594;52.052;8.354;2023-02-26T11:56:28;101405.00;;;8.80
16956;BMP180;8594;52.052;8.354;2023-02-26T11:58:59;101401.00;;;9.50
16956;BMP180;8594;52.052;8.354;2023-02-26T12:01:29;101401.00;;;9.40
16956;BMP180;8594;52.052;8.354;2023-02-26T12:04:00;101406.00;;;9.90
16956;BMP180;8594;52.052;8.354;2023-02-26T12:06:29;101412.00;;;9.70
16956;BMP180;8594;52.052;8.354;2023-02-26T12:08:56;101408.00;;;9.60
16956;BMP180;8594;52.052;8.354;2023-02-26T12:12:00;101426.00;;;8.70
16956;BMP180;8594;52.052;8.354;2023-02-26T12:15:02;101405.00;;;9.70
16956;BMP180;8594;52.052;8.354;2023-02-26T12:17:53;101412.00;;;9.40
16956;BMP180;8594;52.052;8.354;2023-02-26T12:20:30;101414.00;;;8.50
16956;BMP180;8594;52.052;8.354;2023-02-26T12:23:30;101425.00;;;8.40
16956;BMP180;8594;52.052;8.354;2023-02-26T12:26:21;101411.00;;;8.80
16956;BMP180;8594;52.052;8.354;2023-02-26T12:29:06;101415.00;;;9.00
16956;BMP180;8594;52.052;8.354;2023-02-26T12:32:12;101421.00;;;8.50
16956;BMP180;8594;52.052;8.354;2023-02-26T12:35:07;101429.00;;;8.90
16956;BMP180;8594;52.052;8.354;2023-02-26T12:37:50;101416.00;;;8.60
16956;BMP180;8594;52.052;8.354;2023-02-26T12:40:46;101412.00;;;8.10
16956;BMP180;8594;52.052;8.354;2023-02-26T12:43:24;101417.00;;;8.60
16956;BMP180;8594;52.052;8.354;2023-02-26T12:46:05;101403.00;;;8.90
16956;BMP180;8594;52.052;8.354;2023-02-26T12:49:09;101408.00;;;9.30
16956;BMP180;8594;52.052;8.354;2023-02-26T12:52:09;101420.00;;;9.10
16956;BMP180;8594;52.052;8.354;2023-02-26T12:55:16;101424.00;;;8.60
16956;BMP180;8594;52.052;8.354;2023-02-26T12:58:29;101435.00;;;8.80
16956;BMP180;8594;52.052;8.354;2023-02-26T13:01:29;101421.00;;;9.10
16956;BMP180;8594;52.052;8.354;2023-02-26T13:04:52;101421.00;;;8.00
16956;BMP180;8594;52.052;8.354;2023-02-26T13:07:54;101426.00;;;8.90
16956;BMP180;8594;52.052;8.354;2023-02-26T13:10:36;101416.00;;;8.20
16956;BMP180;8594;52.052;8.354;2023-02-26T13:13:31;101413.00;;;7.70
16956;BMP180;8594;52.052;8.354;2023-02-26T13:16:15;101419.00;;;7.80
16956;BMP180;8594;52.052;8.354;2023-02-26T13:18:51;101408.00;;;8.30
16956;BMP180;8594;52.052;8.354;2023-02-26T13:21:24;101417.00;;;8.50
16956;BMP180;8594;52.052;8.354;2023-02-26T13:23:56;101419.00;;;8.30
16956;BMP180;8594;52.052;8.354;2023-02-26T13:26:28;101418.00;;;8.20
16956;BMP180;8594;52.052;8.354;2023-02-26T13:29:02;101409.00;;;7.20
16956;BMP180;8594;52.052;8.354;2023-02-26T13:31:35;101427.00;;;7.70
16956;BMP180;8594;52.052;8.354;2023-02-26T13:34:12;101423.00;;;8.00
16956;BMP180;8594;52.052;8.354;2023-02-26T13:36:41;101408.00;;;7.70
16956;BMP180;8594;52.052;8.354;2023-02-26T13:39:33;101412.00;;;8.30
16956;BMP180;8594;52.052;8.354;2023-02-26T13:42:24;101400.00;;;8.60
16956;BMP180;8594;52.052;8.354;2023-02-26T13:45:14;101410.00;;;8.70
16956;BMP180;8594;52.052;8.354;2023-02-26T13:48:00;101419.00;;;8.50
16956;BMP180;8594;52.052;8.354;2023-02-26T13:50:43;101413.00;;;8.30
16956;BMP180;8594;52.052;8.354;2023-02-26T13:53:50;101412.00;;;7.90
16956;BMP180;8594;52.052;8.354;2023-02-26T13:59:35;101402.00;;;8.10
16956;BMP180;8594;52.052;8.354;2023-02-26T14:02:43;101406.00;;;8.30
16956;BMP180;8594;52.052;8.354;2023-02-26T14:08:50;101408.00;;;7.80
16956;BMP180;8594;52.052;8.354;2023-02-26T14:11:42;101407.00;;;7.50
16956;BMP180;8594;52.052;8.354;2023-02-26T14:14:18;101405.00;;;8.20
16956;BMP180;8594;52.052;8.354;2023-02-26T14:16:53;101415.00;;;7.90
16956;BMP180;8594;52.052;8.354;2023-02-26T14:19:27;101405.00;;;7.90
16956;BMP180;8594;52.052;8.354;2023-02-26T14:22:13;101400.00;;;8.20
16956;BMP180;8594;52.052;8.354;2023-02-26T14:24:51;101399.00;;;7.80
16956;BMP180;8594;52.052;8.354;2023-02-26T14:27:33;101398.00;;;8.30
16956;BMP180;8594;52.052;8.354;2023-02-26T14:30:16;101399.00;;;8.60
16956;BMP180;8594;52.052;8.354;2023-02-26T14:32:48;101407.00;;;8.50
16956;BMP180;8594;52.052;8.354;2023-02-26T14:35:21;101407.00;;;8.50
16956;BMP180;8594;52.052;8.354;2023-02-26T14:37:56;101397.00;;;7.60
16956;BMP180;8594;52.052;8.354;2023-02-26T14:40:25;101396.00;;;7.00
16956;BMP180;8594;52.052;8.354;2023-02-26T14:42:58;101413.00;;;7.50
16956;BMP180;8594;52.052;8.354;2023-02-26T14:45:30;101414.00;;;7.60
16956;BMP180;8594;52.052;8.354;2023-02-26T14:48:00;101405.00;;;8.00
16956;BMP180;8594;52.052;8.354;2023-02-26T14:50:41;101410.00;;;8.10
16956;BMP180;8594;52.052;8.354;2023-02-26T14:53:43;101411.00;;;8.10
16956;BMP180;8594;52.052;8.354;2023-02-26T14:56:23;101414.00;;;8.30
16956;BMP180;8594;52.052;8.354;2023-02-26T14:59:14;101413.00;;;8.00
16956;BMP180;8594;52.052;8.354;2023-02-26T15:01:49;101412.00;;;8.30
16956;BMP180;8594;52.052;8.354;2023-02-26T15:04:54;101417.00;;;8.10